Time;durP1;ratioP1;P1;durP2;ratioP2;P2;SDS_P1;SDS_P2;PMS_P1;PMS_P2;Temp;Humidity;BMP_temperature;BMP_pressure;BME280_temperature;BME280_humidity;BME280_pressure;Samples;Min_cycle;Max_cycle;Signal;HPM_P1;HPM_P2
2024/01/30 00:01:56;;;;;;;10.17;4.73;;;12.80;99.90;;;;;;7286549;19;20261;-84
2024/01/30 00:04:22;;;;;;;10.23;4.83;;;12.80;99.90;;;;;;7305872;19;20232;-85
2024/01/30 00:06:47;;;;;;;10.90;5.30;;;12.90;99.90;;;;;;7303572;19;20199;-84
2024/01/30 00:09:13;;;;;;;9.67;4.93;;;12.90;99.90;;;;;;7299870;19;20197;-84
2024/01/30 00:11:40;;;;;;;10.30;4.73;;;12.90;99.90;;;;;;7321994;19;20224;-84
2024/01/30 00:14:05;;;;;;;9.97;4.73;;;13.00;99.90;;;;;;7301652;19;20193;-82
2024/01/30 00:16:31;;;;;;;10.40;5.03;;;13.00;99.90;;;;;;7301246;19;20203;-84
2024/01/30 00:18:57;;;;;;;9.63;4.77;;;12.90;99.90;;;;;;7283984;19;20199;-85
2024/01/30 00:21:23;;;;;;;9.73;5.17;;;13.00;99.90;;;;;;7284754;19;20223;-85
2024/01/30 00:23:49;;;;;;;9.57;5.10;;;13.10;99.90;;;;;;7284887;19;20201;-84
2024/01/30 00:26:15;;;;;;;9.57;4.70;;;13.00;99.90;;;;;;7283875;19;20561;-84
2024/01/30 00:28:43;;;;;;;10.80;5.17;;;13.00;99.90;;;;;;7284267;19;20217;-84
2024/01/30 00:31:12;;;;;;;10.87;5.20;;;13.00;99.90;;;;;;7291726;19;20202;-84
2024/01/30 00:33:42;;;;;;;13.33;6.07;;;12.90;99.90;;;;;;7311567;19;20273;-82
2024/01/30 00:36:09;;;;;;;12.43;6.00;;;12.90;99.90;;;;;;7292112;19;20194;-85
2024/01/30 00:38:35;;;;;;;13.97;6.77;;;12.80;99.90;;;;;;7290273;19;20238;-84
2024/01/30 00:41:02;;;;;;;12.97;6.93;;;12.90;99.90;;;;;;7289333;19;20183;-85
2024/01/30 00:43:29;;;;;;;16.43;7.10;;;12.80;99.90;;;;;;7291271;19;20200;-84
2024/01/30 00:45:55;;;;;;;13.83;8.80;;;12.90;99.90;;;;;;7289619;19;20197;-85
2024/01/30 00:48:21;;;;;;;13.80;7.37;;;12.90;99.90;;;;;;7290338;19;20538;-84
2024/01/30 00:50:47;;;;;;;15.23;8.50;;;12.80;99.90;;;;;;7290073;19;20192;-84
2024/01/30 00:53:13;;;;;;;15.27;7.87;;;12.80;99.90;;;;;;7288078;19;20221;-84
2024/01/30 00:55:38;;;;;;;13.90;6.90;;;12.70;99.90;;;;;;7309971;19;20189;-82
2024/01/30 00:58:04;;;;;;;11.73;5.87;;;12.60;99.90;;;;;;7300290;19;20293;-84
2024/01/30 01:00:31;;;;;;;11.17;5.90;;;12.70;99.90;;;;;;7288381;19;21647;-85
2024/01/30 01:03:01;;;;;;;11.07;5.83;;;12.70;99.90;;;;;;7289638;19;20207;-84
2024/01/30 01:05:26;;;;;;;11.83;5.70;;;12.60;99.90;;;;;;7288833;19;20199;-84
2024/01/30 01:07:53;;;;;;;10.87;5.40;;;12.60;99.90;;;;;;7288716;19;20190;-84
2024/01/30 01:10:19;;;;;;;11.90;5.57;;;12.70;99.90;;;;;;7290266;19;20198;-84
2024/01/30 01:12:45;;;;;;;11.20;5.73;;;12.70;99.90;;;;;;7288398;19;21022;-84
2024/01/30 01:15:11;;;;;;;10.90;5.60;;;12.70;99.90;;;;;;7288830;19;20254;-83
2024/01/30 01:17:38;;;;;;;13.90;6.70;;;12.70;99.90;;;;;;7311174;19;20897;-84
2024/01/30 01:20:06;;;;;;;12.80;7.00;;;12.80;99.90;;;;;;7294948;19;20202;-83
2024/01/30 01:22:32;;;;;;;14.20;7.33;;;12.80;99.90;;;;;;7295454;19;21947;-85
2024/01/30 01:24:58;;;;;;;13.40;6.77;;;12.90;99.90;;;;;;7288343;19;20550;-84
2024/01/30 01:27:25;;;;;;;12.53;6.03;;;12.90;99.90;;;;;;7287762;19;20875;-85
2024/01/30 01:29:51;;;;;;;12.60;5.87;;;13.00;99.90;;;;;;7289457;19;20193;-85
2024/01/30 01:32:17;;;;;;;13.37;5.40;;;13.00;99.90;;;;;;7286475;19;20718;-84
2024/01/30 01:34:43;;;;;;;10.73;5.33;;;13.10;99.90;;;;;;7288255;19;20199;-84
2024/01/30 01:37:09;;;;;;;11.80;4.90;;;13.10;99.90;;;;;;7308406;19;20202;-81
2024/01/30 01:39:34;;;;;;;10.30;4.90;;;13.10;99.90;;;;;;7296895;19;20540;-85
2024/01/30 01:42:00;;;;;;;10.13;5.23;;;13.20;99.90;;;;;;7287497;19;20203;-85
2024/01/30 01:44:26;;;;;;;10.93;5.03;;;13.20;99.90;;;;;;7287067;19;20531;-85
2024/01/30 01:46:53;;;;;;;10.33;5.40;;;13.20;99.90;;;;;;7286469;19;20204;-85
2024/01/30 01:49:20;;;;;;;8.63;4.80;;;13.20;99.90;;;;;;7289354;19;20191;-85
2024/01/30 01:51:48;;;;;;;10.57;5.27;;;13.20;99.90;;;;;;7286827;19;20200;-85
2024/01/30 01:54:15;;;;;;;10.07;5.07;;;13.20;99.90;;;;;;7286546;19;20204;-85
2024/01/30 01:56:43;;;;;;;14.20;5.10;;;13.20;99.90;;;;;;7286787;19;20196;-84
2024/01/30 01:59:09;;;;;;;11.13;5.60;;;13.20;99.90;;;;;;7306253;19;20213;-80
2024/01/30 02:01:37;;;;;;;11.87;5.53;;;13.20;99.90;;;;;;7297598;19;20600;-85
2024/01/30 02:04:02;;;;;;;12.10;5.90;;;13.20;99.90;;;;;;7286629;19;20185;-85
2024/01/30 02:06:28;;;;;;;11.03;6.03;;;13.20;99.90;;;;;;7285928;19;22009;-85
2024/01/30 02:08:54;;;;;;;11.77;5.97;;;13.20;99.90;;;;;;7289103;19;20199;-84
2024/01/30 02:11:22;;;;;;;13.13;6.40;;;13.20;99.90;;;;;;7290260;19;20678;-86
2024/01/30 02:13:47;;;;;;;15.57;7.17;;;13.20;99.90;;;;;;7286831;19;20196;-85
2024/01/30 02:16:13;;;;;;;15.40;6.80;;;13.20;99.90;;;;;;7291950;19;20191;-86
2024/01/30 02:18:45;;;;;;;13.20;6.40;;;13.20;99.90;;;;;;7304490;19;20188;-82
2024/01/30 02:21:11;;;;;;;12.70;6.00;;;13.20;99.90;;;;;;7285216;19;20185;-85
2024/01/30 02:23:37;;;;;;;12.70;5.70;;;13.10;99.90;;;;;;7305111;19;20211;-84
2024/01/30 02:26:03;;;;;;;12.77;5.70;;;13.10;99.90;;;;;;7281363;19;20194;-85
2024/01/30 02:28:29;;;;;;;10.63;4.93;;;13.10;99.90;;;;;;7287145;19;20208;-85
2024/01/30 02:30:55;;;;;;;12.27;5.33;;;13.20;99.90;;;;;;7289083;19;20210;-85
2024/01/30 02:33:21;;;;;;;11.10;5.17;;;13.10;99.90;;;;;;7289671;19;20258;-85
2024/01/30 02:35:48;;;;;;;9.33;4.90;;;13.20;99.90;;;;;;7290587;19;20260;-85
2024/01/30 02:38:13;;;;;;;11.37;4.97;;;13.10;99.90;;;;;;7291627;19;20193;-84
2024/01/30 02:40:39;;;;;;;11.43;5.33;;;13.00;99.90;;;;;;7302328;19;20573;-83
2024/01/30 02:43:05;;;;;;;10.87;5.07;;;13.00;99.90;;;;;;7300745;19;20574;-85
2024/01/30 02:45:31;;;;;;;12.03;5.27;;;13.00;99.90;;;;;;7285684;19;20194;-85
2024/01/30 02:47:57;;;;;;;10.33;4.73;;;13.00;99.90;;;;;;7291605;19;20274;-86
2024/01/30 02:50:22;;;;;;;10.37;5.40;;;13.00;99.90;;;;;;7291136;19;20196;-86
2024/01/30 02:52:48;;;;;;;10.47;5.20;;;13.00;99.90;;;;;;7285141;19;20217;-85
2024/01/30 02:55:17;;;;;;;9.13;5.03;;;12.90;99.90;;;;;;7285249;19;20191;-85
2024/01/30 02:57:43;;;;;;;10.67;5.80;;;12.90;99.90;;;;;;7285076;19;20207;-85
2024/01/30 03:00:09;;;;;;;10.13;4.80;;;13.00;99.90;;;;;;7308525;19;20693;-85
2024/01/30 03:02:35;;;;;;;10.00;5.53;;;13.00;99.90;;;;;;7285362;19;20188;-85
2024/01/30 03:05:01;;;;;;;11.87;5.53;;;13.00;99.90;;;;;;7285071;19;20214;-85
2024/01/30 03:07:27;;;;;;;11.73;5.20;;;13.00;99.90;;;;;;7285815;19;20185;-85
2024/01/30 03:09:55;;;;;;;10.17;4.60;;;12.90;99.90;;;;;;7285815;19;20258;-85
2024/01/30 03:12:21;;;;;;;12.40;5.00;;;13.00;99.90;;;;;;7285274;19;20190;-85
2024/01/30 03:14:47;;;;;;;10.53;4.73;;;13.00;99.90;;;;;;7285237;19;20220;-85
2024/01/30 03:17:12;;;;;;;8.67;4.70;;;13.10;99.90;;;;;;7284476;19;20909;-85
2024/01/30 03:19:38;;;;;;;10.40;4.27;;;13.20;99.90;;;;;;7305457;19;20188;-85
2024/01/30 03:22:04;;;;;;;12.37;4.90;;;13.20;99.90;;;;;;7286535;19;20671;-85
2024/01/30 03:24:30;;;;;;;11.00;5.07;;;13.30;99.90;;;;;;7285685;19;20180;-85
2024/01/30 03:26:56;;;;;;;11.87;5.33;;;13.40;99.90;;;;;;7284146;19;20195;-85
2024/01/30 03:29:22;;;;;;;12.37;4.93;;;13.30;99.90;;;;;;7284779;19;20202;-85
2024/01/30 03:31:47;;;;;;;12.97;5.10;;;13.30;99.90;;;;;;7284456;19;20188;-85
2024/01/30 03:34:13;;;;;;;11.13;5.53;;;13.30;99.90;;;;;;7284911;19;20185;-84
2024/01/30 03:36:39;;;;;;;12.00;4.93;;;13.30;99.90;;;;;;7305739;19;20207;-81
2024/01/30 03:39:06;;;;;;;14.00;4.97;;;13.30;99.90;;;;;;7292780;19;20187;-85
2024/01/30 03:41:32;;;;;;;11.63;4.83;;;13.30;99.90;;;;;;7283820;19;20959;-85
2024/01/30 03:43:58;;;;;;;10.23;4.90;;;13.40;99.90;;;;;;7283354;19;20183;-86
2024/01/30 03:46:24;;;;;;;10.10;4.73;;;13.30;99.90;;;;;;7283731;19;20190;-83
2024/01/30 03:48:50;;;;;;;9.97;5.00;;;13.30;99.90;;;;;;7285673;19;20210;-84
2024/01/30 03:51:15;;;;;;;10.30;5.20;;;13.20;99.90;;;;;;7282990;19;20186;-84
2024/01/30 03:53:42;;;;;;;11.00;5.50;;;13.30;99.90;;;;;;7284187;19;20198;-84
2024/01/30 03:56:09;;;;;;;11.33;5.47;;;13.30;99.90;;;;;;7304661;19;20279;-85
2024/01/30 03:58:35;;;;;;;10.07;5.13;;;13.30;99.90;;;;;;7283221;19;20256;-85
2024/01/30 04:01:00;;;;;;;11.10;5.63;;;13.20;99.90;;;;;;7283562;19;20177;-85
2024/01/30 04:03:26;;;;;;;9.80;5.20;;;13.30;99.90;;;;;;7282467;19;20192;-85
2024/01/30 04:05:52;;;;;;;12.40;5.43;;;13.10;99.90;;;;;;7285853;19;20193;-85
2024/01/30 04:08:18;;;;;;;11.20;5.33;;;13.10;99.90;;;;;;7290200;19;20728;-85
2024/01/30 04:10:44;;;;;;;11.00;5.60;;;13.20;99.90;;;;;;7291306;19;20183;-85
2024/01/30 04:13:10;;;;;;;11.17;5.07;;;13.20;99.90;;;;;;7311742;19;20181;-83
2024/01/30 04:15:35;;;;;;;10.17;5.30;;;13.20;99.90;;;;;;7313597;19;20186;-86
2024/01/30 04:18:01;;;;;;;10.97;5.10;;;13.20;99.90;;;;;;7297307;19;20196;-85
2024/01/30 04:20:27;;;;;;;9.47;4.80;;;13.20;99.90;;;;;;7291368;19;20187;-85
2024/01/30 04:22:53;;;;;;;12.07;5.53;;;13.10;99.90;;;;;;7290802;19;20218;-86
2024/01/30 04:25:19;;;;;;;10.83;5.13;;;13.20;99.90;;;;;;7290931;19;20247;-86
2024/01/30 04:27:44;;;;;;;9.23;4.90;;;13.20;99.90;;;;;;7288386;19;20195;-85
2024/01/30 04:30:10;;;;;;;10.67;4.80;;;13.10;99.90;;;;;;7302923;19;20337;-84
2024/01/30 04:32:37;;;;;;;11.83;5.03;;;13.10;99.90;;;;;;7310735;19;20213;-84
2024/01/30 04:35:03;;;;;;;13.97;5.97;;;13.10;99.90;;;;;;7288891;19;20642;-85
2024/01/30 04:37:30;;;;;;;11.07;5.07;;;13.10;99.90;;;;;;7290522;19;20196;-85
2024/01/30 04:39:56;;;;;;;11.40;5.40;;;13.10;99.90;;;;;;7288952;19;20218;-85
2024/01/30 04:42:22;;;;;;;11.83;5.73;;;13.10;99.90;;;;;;7289136;19;20255;-85
2024/01/30 04:44:48;;;;;;;12.03;5.37;;;13.10;99.90;;;;;;7288552;19;20249;-86
2024/01/30 04:47:13;;;;;;;11.30;5.30;;;13.10;99.90;;;;;;7289169;19;21158;-85
2024/01/30 04:49:39;;;;;;;13.10;6.60;;;13.10;99.90;;;;;;7309336;19;20197;-85
2024/01/30 04:52:06;;;;;;;12.60;6.33;;;13.00;99.90;;;;;;7289367;19;20184;-85
2024/01/30 04:54:32;;;;;;;16.37;7.40;;;13.10;99.90;;;;;;7288992;19;20199;-85
2024/01/30 04:56:58;;;;;;;15.30;6.97;;;13.10;99.90;;;;;;7287823;19;20221;-85
2024/01/30 04:59:24;;;;;;;12.43;6.70;;;13.10;99.90;;;;;;7288417;19;20196;-85
2024/01/30 05:01:50;;;;;;;15.23;6.60;;;13.20;99.90;;;;;;7287182;19;20655;-85
2024/01/30 05:04:15;;;;;;;15.63;5.70;;;13.20;99.90;;;;;;7284781;19;20196;-85
2024/01/30 05:06:41;;;;;;;11.60;5.77;;;13.20;99.90;;;;;;7289098;19;20187;-85
2024/01/30 05:09:07;;;;;;;11.87;5.67;;;13.10;99.90;;;;;;7312454;19;20186;-85
2024/01/30 05:11:42;;;;;;;11.07;5.33;;;13.10;99.90;;;;;;7288435;19;20202;-85
2024/01/30 05:14:11;;;;;;;9.40;5.23;;;13.10;99.90;;;;;;7289292;19;20219;-85
2024/01/30 05:16:37;;;;;;;11.03;5.37;;;13.10;99.90;;;;;;7289146;19;20183;-85
2024/01/30 05:19:03;;;;;;;11.60;5.77;;;13.20;99.90;;;;;;7287310;19;20649;-85
2024/01/30 05:21:28;;;;;;;13.80;5.87;;;13.10;99.90;;;;;;7288951;19;20199;-85
2024/01/30 05:23:54;;;;;;;11.50;5.50;;;13.10;99.90;;;;;;7287100;19;20203;-85
2024/01/30 05:26:20;;;;;;;10.63;5.37;;;13.10;99.90;;;;;;7285471;19;20198;-85
2024/01/30 05:28:46;;;;;;;13.00;5.50;;;13.00;99.90;;;;;;7288618;19;20576;-85
2024/01/30 05:31:11;;;;;;;11.87;5.13;;;13.00;99.90;;;;;;7290915;19;20224;-84
2024/01/30 05:33:37;;;;;;;13.30;5.80;;;12.90;99.90;;;;;;7311104;19;20297;-86
2024/01/30 05:36:03;;;;;;;12.10;5.20;;;12.90;99.90;;;;;;7288215;19;20195;-85
2024/01/30 05:38:30;;;;;;;13.47;5.20;;;12.90;99.90;;;;;;7288985;19;20206;-85
2024/01/30 05:40:58;;;;;;;12.00;5.70;;;12.90;99.90;;;;;;7287258;19;20271;-85
2024/01/30 05:43:24;;;;;;;11.30;5.40;;;12.90;99.90;;;;;;7287937;19;20658;-86
2024/01/30 05:45:50;;;;;;;11.30;5.47;;;12.90;99.90;;;;;;7298558;19;20663;-86
2024/01/30 05:48:16;;;;;;;11.33;5.60;;;12.90;99.90;;;;;;7286964;19;20254;-86
2024/01/30 05:50:42;;;;;;;10.70;5.30;;;12.90;99.90;;;;;;7288324;19;20211;-86
2024/01/30 05:53:08;;;;;;;13.77;5.80;;;12.90;99.90;;;;;;7310749;19;20186;-87
2024/01/30 05:55:33;;;;;;;14.90;6.20;;;12.80;99.90;;;;;;7289692;19;20188;-86
2024/01/30 05:57:59;;;;;;;13.53;6.57;;;12.70;99.90;;;;;;7288605;19;25977;-86
2024/01/30 06:00:25;;;;;;;14.37;5.80;;;12.80;99.90;;;;;;7287443;19;20190;-85
2024/01/30 06:02:51;;;;;;;10.83;5.80;;;12.90;99.90;;;;;;7287566;19;20500;-86
2024/01/30 06:05:16;;;;;;;11.40;6.20;;;12.90;99.90;;;;;;7286649;19;20199;-86
2024/01/30 06:07:42;;;;;;;10.60;5.70;;;12.90;99.90;;;;;;7285188;19;20693;-85
2024/01/30 06:10:08;;;;;;;13.70;5.83;;;12.90;99.90;;;;;;7310856;19;20613;-85
2024/01/30 06:12:35;;;;;;;12.93;6.00;;;12.80;99.90;;;;;;7284678;19;20192;-86
2024/01/30 06:15:01;;;;;;;11.40;5.87;;;12.70;99.90;;;;;;7292639;19;20295;-86
2024/01/30 06:17:26;;;;;;;13.87;5.60;;;12.70;99.90;;;;;;7287914;19;20660;-86
2024/01/30 06:19:52;;;;;;;11.53;5.93;;;12.50;99.90;;;;;;7288791;19;20198;-87
2024/01/30 06:22:18;;;;;;;14.07;6.13;;;12.60;99.90;;;;;;7288928;19;20253;-86
2024/01/30 06:24:44;;;;;;;15.87;6.50;;;12.60;99.90;;;;;;7288558;19;20194;-85
2024/01/30 06:27:11;;;;;;;14.57;6.37;;;12.70;99.90;;;;;;7300055;19;20276;-84
2024/01/30 06:29:36;;;;;;;14.03;6.07;;;12.80;99.90;;;;;;7306025;19;20186;-86
2024/01/30 06:32:02;;;;;;;13.50;6.27;;;12.80;99.90;;;;;;7286513;19;20190;-86
2024/01/30 06:34:28;;;;;;;12.43;6.00;;;12.80;99.90;;;;;;7286085;19;20193;-85
2024/01/30 06:36:54;;;;;;;12.90;6.00;;;12.80;99.90;;;;;;7287117;19;20188;-86
2024/01/30 06:39:19;;;;;;;13.10;6.00;;;12.90;99.90;;;;;;7286356;19;20198;-86
2024/01/30 06:41:46;;;;;;;11.70;5.90;;;12.80;99.90;;;;;;7287100;19;20981;-86
2024/01/30 06:44:12;;;;;;;14.27;6.50;;;12.90;99.90;;;;;;7298184;19;20195;-86
2024/01/30 06:46:38;;;;;;;13.83;6.00;;;13.00;99.90;;;;;;7305178;19;20198;-84
2024/01/30 06:49:04;;;;;;;14.80;6.97;;;13.00;99.90;;;;;;7286642;19;20193;-84
2024/01/30 06:51:30;;;;;;;10.90;5.73;;;13.00;99.90;;;;;;7277741;19;20210;-84
2024/01/30 06:53:56;;;;;;;13.83;6.30;;;13.00;99.90;;;;;;7282192;19;20204;-84
2024/01/30 06:56:22;;;;;;;16.20;6.20;;;13.00;99.90;;;;;;7281850;19;20189;-84
2024/01/30 06:58:51;;;;;;;11.57;6.43;;;13.00;99.90;;;;;;7280767;19;20195;-84
2024/01/30 07:01:17;;;;;;;12.27;6.17;;;12.90;99.90;;;;;;7280738;19;20258;-84
2024/01/30 07:03:43;;;;;;;15.00;6.43;;;12.90;99.90;;;;;;7286333;19;20188;-84
2024/01/30 07:06:13;;;;;;;13.70;6.20;;;12.80;99.90;;;;;;7304316;19;20188;-85
2024/01/30 07:08:40;;;;;;;14.13;6.70;;;12.80;99.90;;;;;;7279689;19;20193;-85
2024/01/30 07:11:06;;;;;;;12.47;6.37;;;12.70;99.90;;;;;;7281365;19;20185;-85
2024/01/30 07:13:32;;;;;;;16.17;6.77;;;12.80;99.90;;;;;;7284150;19;20214;-86
2024/01/30 07:15:58;;;;;;;13.73;7.37;;;12.90;99.90;;;;;;7280274;19;20190;-83
2024/01/30 07:18:24;;;;;;;14.37;5.80;;;12.80;99.90;;;;;;7280627;19;20650;-85
2024/01/30 07:20:49;;;;;;;14.50;6.30;;;13.00;99.90;;;;;;7280298;19;20197;-86
2024/01/30 07:23:17;;;;;;;14.87;6.33;;;12.90;99.90;;;;;;7280840;19;20687;-84
2024/01/30 07:25:44;;;;;;;15.70;6.43;;;12.90;99.90;;;;;;7290524;19;20692;-85
2024/01/30 07:28:10;;;;;;;17.27;6.73;;;13.00;99.90;;;;;;7302386;19;20202;-80
2024/01/30 07:30:36;;;;;;;12.83;5.97;;;13.00;99.90;;;;;;7277979;19;20194;-84
2024/01/30 07:33:02;;;;;;;16.00;6.97;;;13.00;99.90;;;;;;7279650;19;20207;-85
2024/01/30 07:35:28;;;;;;;12.77;6.50;;;13.00;99.90;;;;;;7281207;19;20246;-84
2024/01/30 07:37:54;;;;;;;16.90;7.03;;;13.00;99.90;;;;;;7285335;19;20682;-84
2024/01/30 07:40:19;;;;;;;17.03;7.27;;;13.10;99.90;;;;;;7281382;19;20592;-84
2024/01/30 07:42:48;;;;;;;17.50;7.03;;;13.20;99.90;;;;;;7283608;19;20198;-85
2024/01/30 07:45:14;;;;;;;21.50;7.60;;;13.10;99.90;;;;;;7285124;19;20191;-84
2024/01/30 07:47:39;;;;;;;19.33;8.03;;;13.00;99.90;;;;;;7304985;19;20566;-86
2024/01/30 07:50:06;;;;;;;15.80;6.97;;;13.10;99.90;;;;;;7278893;19;20196;-86
2024/01/30 07:52:31;;;;;;;15.93;7.47;;;13.10;99.90;;;;;;7283804;19;20213;-84
2024/01/30 07:54:57;;;;;;;17.43;7.43;;;13.10;99.90;;;;;;7283746;19;20211;-84
2024/01/30 07:57:24;;;;;;;15.57;7.13;;;13.10;99.90;;;;;;7283688;19;20194;-84
2024/01/30 07:59:50;;;;;;;17.37;8.10;;;13.10;99.90;;;;;;7285359;19;20194;-86
2024/01/30 08:02:16;;;;;;;18.50;7.80;;;12.90;99.90;;;;;;7284632;19;20254;-86
2024/01/30 08:04:42;;;;;;;20.73;8.60;;;12.80;99.90;;;;;;7300118;19;20199;-85
2024/01/30 08:07:08;;;;;;;18.53;7.97;;;12.90;99.90;;;;;;7298624;19;20188;-87
2024/01/30 08:09:34;;;;;;;18.93;8.27;;;12.80;99.90;;;;;;7283683;19;20461;-87
2024/01/30 08:12:00;;;;;;;16.40;7.87;;;12.70;99.90;;;;;;7285038;19;20563;-86
2024/01/30 08:14:26;;;;;;;14.97;7.00;;;12.80;99.90;;;;;;7283719;19;20227;-87
2024/01/30 08:16:51;;;;;;;18.37;7.70;;;12.80;99.90;;;;;;7283376;19;20198;-87
2024/01/30 08:19:17;;;;;;;17.27;7.83;;;12.80;99.90;;;;;;7283356;19;20614;-86
2024/01/30 08:21:43;;;;;;;18.10;7.50;;;12.80;99.90;;;;;;7290915;19;20203;-85
2024/01/30 08:24:10;;;;;;;15.73;7.70;;;13.00;99.90;;;;;;7305535;19;20260;-85
2024/01/30 08:26:35;;;;;;;18.47;8.00;;;13.00;99.90;;;;;;7283687;19;20195;-86
2024/01/30 08:29:01;;;;;;;20.37;8.97;;;13.10;99.90;;;;;;7283886;19;20281;-86
2024/01/30 08:31:27;;;;;;;22.70;8.20;;;13.20;99.90;;;;;;7284448;19;20196;-86
2024/01/30 08:33:53;;;;;;;19.47;7.57;;;13.20;99.90;;;;;;7287110;19;20189;-86
2024/01/30 08:36:19;;;;;;;15.73;7.20;;;13.20;99.90;;;;;;7283984;19;20284;-86
2024/01/30 08:38:45;;;;;;;15.70;7.13;;;13.20;99.90;;;;;;7281648;19;20728;-84
2024/01/30 08:41:14;;;;;;;14.33;7.30;;;13.30;99.90;;;;;;7287252;19;20184;-82
2024/01/30 08:43:40;;;;;;;17.37;7.37;;;13.30;99.90;;;;;;7304945;19;20217;-84
2024/01/30 08:46:05;;;;;;;14.10;6.67;;;13.40;99.90;;;;;;7284686;19;20188;-84
2024/01/30 08:48:31;;;;;;;16.27;7.63;;;13.60;99.90;;;;;;7282940;19;21375;-85
2024/01/30 08:50:58;;;;;;;18.33;7.20;;;13.50;99.90;;;;;;7282315;19;20685;-84
2024/01/30 08:53:24;;;;;;;19.43;7.60;;;13.40;99.90;;;;;;7289729;19;20201;-84
2024/01/30 08:55:50;;;;;;;16.60;6.97;;;13.40;99.90;;;;;;7289184;19;20203;-84
2024/01/30 08:58:18;;;;;;;15.57;6.93;;;13.20;99.90;;;;;;7289095;19;20201;-84
2024/01/30 09:00:43;;;;;;;20.80;7.67;;;13.20;99.90;;;;;;7292418;19;20190;-84
2024/01/30 09:03:09;;;;;;;17.70;7.30;;;13.20;99.90;;;;;;7312702;19;20234;-84
2024/01/30 09:05:35;;;;;;;16.63;7.33;;;13.30;99.90;;;;;;7290345;19;20191;-85
2024/01/30 09:08:00;;;;;;;20.47;8.43;;;13.30;99.90;;;;;;7289461;19;20206;-85
2024/01/30 09:10:26;;;;;;;21.27;8.57;;;13.20;99.90;;;;;;7289450;19;20253;-85
2024/01/30 09:12:52;;;;;;;16.73;8.03;;;13.30;99.90;;;;;;7288741;19;20190;-84
2024/01/30 09:15:18;;;;;;;18.77;8.03;;;13.30;99.90;;;;;;7288233;19;20661;-85
2024/01/30 09:17:44;;;;;;;18.70;7.93;;;13.30;99.90;;;;;;7289195;19;20593;-83
2024/01/30 09:20:10;;;;;;;19.17;8.53;;;13.30;99.90;;;;;;7315342;19;20289;-85
2024/01/30 09:22:36;;;;;;;19.07;9.17;;;13.40;99.90;;;;;;7292317;19;20193;-85
2024/01/30 09:25:02;;;;;;;19.57;8.37;;;13.30;99.90;;;;;;7293238;19;20215;-85
2024/01/30 09:27:28;;;;;;;19.57;9.13;;;13.40;99.90;;;;;;7292092;19;20210;-85
2024/01/30 09:29:54;;;;;;;21.07;9.20;;;13.30;99.90;;;;;;7294195;19;20232;-85
2024/01/30 09:32:19;;;;;;;22.67;9.00;;;13.40;99.90;;;;;;7295201;19;20205;-85
2024/01/30 09:34:45;;;;;;;20.20;9.30;;;13.40;99.90;;;;;;7287460;19;20195;-84
2024/01/30 09:37:11;;;;;;;20.33;9.20;;;13.50;99.90;;;;;;7309907;19;20517;-85
2024/01/30 09:39:37;;;;;;;25.17;9.53;;;13.50;99.90;;;;;;7275281;19;20190;-84
2024/01/30 09:42:11;;;;;;;19.10;8.70;;;13.50;99.90;;;;;;7287091;19;20219;-85
2024/01/30 09:44:38;;;;;;;24.57;8.77;;;13.60;99.90;;;;;;7288398;19;20229;-85
2024/01/30 09:47:05;;;;;;;21.93;9.37;;;13.50;99.90;;;;;;7287064;19;21386;-83
2024/01/30 09:49:33;;;;;;;21.67;8.53;;;13.50;99.90;;;;;;7285048;19;20195;-83
2024/01/30 09:51:58;;;;;;;20.53;8.83;;;13.50;99.90;;;;;;7285492;19;20198;-82
2024/01/30 09:54:24;;;;;;;18.93;8.63;;;13.50;99.90;;;;;;7287215;19;20224;-82
2024/01/30 09:56:50;;;;;;;19.30;9.17;;;13.50;99.90;;;;;;7285760;19;20194;-82
2024/01/30 09:59:16;;;;;;;21.57;9.67;;;13.60;99.90;;;;;;7286501;19;20199;-82
2024/01/30 10:01:43;;;;;;;22.83;9.10;;;13.50;99.90;;;;;;7309426;19;20192;-84
2024/01/30 10:04:09;;;;;;;18.67;8.50;;;13.50;99.90;;;;;;7286003;19;20187;-82
2024/01/30 10:06:35;;;;;;;20.80;9.07;;;13.50;99.90;;;;;;7287220;19;20196;-83
2024/01/30 10:09:00;;;;;;;22.03;8.97;;;13.50;99.90;;;;;;7294153;19;20199;-83
2024/01/30 10:11:26;;;;;;;22.67;9.17;;;13.60;99.90;;;;;;7289390;19;21045;-84
2024/01/30 10:13:52;;;;;;;17.00;9.07;;;13.70;99.90;;;;;;7288010;19;20201;-85
2024/01/30 10:16:18;;;;;;;21.57;8.97;;;13.70;99.90;;;;;;7287638;19;20188;-82
2024/01/30 10:18:44;;;;;;;21.27;9.97;;;13.90;99.90;;;;;;7288113;19;20304;-85
2024/01/30 10:21:10;;;;;;;20.70;9.30;;;13.90;99.90;;;;;;7308030;19;20274;-86
2024/01/30 10:23:36;;;;;;;24.33;10.27;;;13.80;99.90;;;;;;7287153;19;20184;-86
2024/01/30 10:26:04;;;;;;;22.73;10.50;;;13.80;99.90;;;;;;7286680;19;20212;-85
2024/01/30 10:28:30;;;;;;;19.70;10.30;;;13.80;99.90;;;;;;7286331;19;20192;-85
2024/01/30 10:31:03;;;;;;;22.13;9.83;;;13.80;99.90;;;;;;7287316;19;20187;-85
2024/01/30 10:33:30;;;;;;;19.33;9.90;;;13.70;99.90;;;;;;7291269;19;20654;-85
2024/01/30 10:36:02;;;;;;;20.90;9.87;;;13.80;99.90;;;;;;7294245;19;20191;-85
2024/01/30 10:38:32;;;;;;;23.47;10.13;;;13.80;99.90;;;;;;7284512;19;20191;-85
2024/01/30 10:41:00;;;;;;;24.40;10.03;;;13.90;99.90;;;;;;7285892;19;20180;-84
2024/01/30 10:43:35;;;;;;;21.53;9.40;;;13.90;99.90;;;;;;7287016;19;20197;-85
2024/01/30 10:46:20;;;;;;;26.93;9.50;;;13.80;99.90;;;;;;7285730;19;20194;-85
2024/01/30 10:49:13;;;;;;;21.40;8.70;;;14.10;99.90;;;;;;7265367;19;20186;-84
2024/01/30 10:51:40;;;;;;;27.37;8.37;;;14.20;99.90;;;;;;7293343;19;20188;-84
2024/01/30 10:54:07;;;;;;;19.53;8.10;;;14.10;99.90;;;;;;7284891;19;20196;-85
2024/01/30 10:56:33;;;;;;;19.47;7.80;;;14.10;99.90;;;;;;7288108;19;20204;-86
2024/01/30 10:58:59;;;;;;;16.97;6.70;;;14.00;99.90;;;;;;7286767;19;20540;-86
2024/01/30 11:01:27;;;;;;;21.97;6.80;;;13.80;99.90;;;;;;7286589;19;20189;-86
2024/01/30 11:03:53;;;;;;;16.30;5.63;;;13.60;99.90;;;;;;7285006;19;20212;-83
2024/01/30 11:06:22;;;;;;;12.10;4.40;;;13.50;99.90;;;;;;7284206;19;20322;-84
2024/01/30 11:09:03;;;;;;;13.13;3.57;;;13.20;99.90;;;;;;7287416;19;20525;-84
2024/01/30 11:11:29;;;;;;;11.07;2.57;;;13.00;99.90;;;;;;7286256;19;20522;-85
2024/01/30 11:13:55;;;;;;;9.00;1.97;;;12.80;99.90;;;;;;7286019;19;20188;-84
2024/01/30 11:16:21;;;;;;;8.83;2.07;;;12.70;99.90;;;;;;7283371;19;20207;-84
2024/01/30 11:18:53;;;;;;;7.50;1.40;;;12.70;99.90;;;;;;7285430;19;20726;-85
2024/01/30 11:21:19;;;;;;;10.67;1.60;;;12.80;99.90;;;;;;7283993;19;20848;-84
2024/01/30 11:23:44;;;;;;;5.47;1.10;;;12.60;99.90;;;;;;7284217;19;20270;-83
2024/01/30 11:26:11;;;;;;;6.53;1.47;;;12.60;99.90;;;;;;7304983;19;20189;-81
2024/01/30 11:28:38;;;;;;;7.77;1.37;;;12.60;99.90;;;;;;7283385;19;20193;-81
2024/01/30 11:31:07;;;;;;;6.57;1.20;;;12.70;99.90;;;;;;7287284;19;20197;-82
2024/01/30 11:33:34;;;;;;;5.83;1.00;;;12.90;99.90;;;;;;7296963;19;20256;-83
2024/01/30 11:36:00;;;;;;;7.03;1.10;;;13.00;99.90;;;;;;7295792;19;20201;-81
2024/01/30 11:38:27;;;;;;;6.93;1.50;;;13.00;99.90;;;;;;7291476;19;20197;-82
2024/01/30 11:40:58;;;;;;;8.17;1.50;;;13.10;99.90;;;;;;7299199;19;20571;-84
2024/01/30 11:43:24;;;;;;;6.50;1.00;;;13.20;99.90;;;;;;7295728;19;20233;-83
2024/01/30 11:45:50;;;;;;;5.33;1.27;;;13.30;99.90;;;;;;7295929;19;20222;-84
2024/01/30 11:48:16;;;;;;;6.30;1.57;;;13.30;99.90;;;;;;7285744;19;20191;-85
2024/01/30 11:50:44;;;;;;;5.07;1.27;;;13.50;99.90;;;;;;7306722;19;20182;-84
2024/01/30 11:53:11;;;;;;;5.83;1.20;;;13.40;99.90;;;;;;7285267;19;20208;-84
2024/01/30 11:55:37;;;;;;;3.67;0.87;;;13.20;99.90;;;;;;7284378;19;20620;-84
2024/01/30 11:58:04;;;;;;;4.40;0.80;;;13.30;99.90;;;;;;7285169;19;20196;-86
2024/01/30 12:00:33;;;;;;;7.27;1.00;;;13.40;99.90;;;;;;7283485;19;20940;-85
2024/01/30 12:03:00;;;;;;;3.97;0.70;;;13.50;99.90;;;;;;7282578;19;20304;-86
2024/01/30 12:05:27;;;;;;;4.00;0.60;;;13.40;99.90;;;;;;7284417;19;20190;-84
2024/01/30 12:07:53;;;;;;;3.30;0.57;;;13.40;99.90;;;;;;7282560;19;20314;-85
2024/01/30 12:10:19;;;;;;;3.53;0.83;;;13.30;99.90;;;;;;7285101;19;20189;-84
2024/01/30 12:12:50;;;;;;;4.23;0.60;;;13.30;99.90;;;;;;7284006;19;20568;-85
2024/01/30 12:15:17;;;;;;;5.03;0.70;;;13.10;99.90;;;;;;7284460;19;20181;-85
2024/01/30 12:17:42;;;;;;;5.90;0.90;;;13.10;99.90;;;;;;7305753;19;20188;-80
2024/01/30 12:20:11;;;;;;;6.60;0.80;;;13.20;99.90;;;;;;7294326;19;20245;-85
2024/01/30 12:22:44;;;;;;;4.40;0.80;;;13.30;99.90;;;;;;7282806;19;20278;-85
2024/01/30 12:25:12;;;;;;;3.07;0.60;;;13.10;99.90;;;;;;7285584;19;20186;-86
2024/01/30 12:27:39;;;;;;;2.77;0.60;;;13.00;99.90;;;;;;7287708;19;20643;-86
2024/01/30 12:30:10;;;;;;;3.40;0.50;;;13.00;99.90;;;;;;7290908;19;20235;-85
2024/01/30 12:32:36;;;;;;;6.43;0.50;;;13.10;99.90;;;;;;7290707;19;20218;-84
2024/01/30 12:35:03;;;;;;;3.60;0.60;;;12.80;99.90;;;;;;7289649;19;20249;-83